Latest Weather Observations for Port Augusta

IDS60801

Issued at 11:35 am CST Wednesday 3 September 2014 (issued every 30 minutes, with the page automatically refreshed every 10 minutes)

About weather observations | Map of weather stations | Latest weather observations for SA | Other Formats
Station Details ID: 018201 Name: PORT AUGUSTA AERO Lat: -32.51 Lon: 137.72 Height: 13.97 m
Data from the previous 72 hours. | See also: Recent months at Port Augusta
Date/Time
CST
Temp
°C
App
Temp
°C
Dew
Point
Rel
Hum
%
Delta-T
°C
Wind Press
QNH
hPa
Press
MSL
hPa
Rain
since 9 am
mm
Dir
 
Spd
km/h
Gust
km/h
Spd
kts
Gust
kts
03/11:30am 15.1 10.9 5.9 54 4.4 N 17 28 9 15 1023.4 - 0.0
03/11:00am 13.9 10.6 6.3 60 3.6 N 13 20 7 11 1024.1 - 0.0
03/10:30am 12.9 10.8 6.5 65 3.1 NW 7 11 4 6 1024.6 - 0.0
03/10:00am 11.9 10.0 6.6 70 2.5 WNW 6 7 3 4 1024.8 - 0.0
03/09:30am 11.4 9.3 6.5 72 2.3 W 7 9 4 5 1025.4 - 0.0
03/09:00am 10.9 8.9 6.3 73 2.1 NNE 6 9 3 5 1025.0 1025.0 0.0
03/08:30am 9.7 9.0 6.8 82 1.4 CALM 0 0 0 0 1025.0 - 0.0
03/08:00am 8.8 8.2 7.4 91 0.7 CALM 0 0 0 0 1025.1 - 0.0
03/07:30am 7.2 6.3 6.0 92 0.5 CALM 0 0 0 0 1024.9 - 0.0
03/07:00am 7.4 5.6 5.4 87 0.9 E 4 7 2 4 1024.7 - 0.0
03/06:30am 7.9 4.8 5.7 86 1.0 E 11 15 6 8 1024.2 - 0.0
03/06:00am 7.9 4.6 6.5 91 0.6 ESE 13 17 7 9 1024.2 1024.2 0.0
03/05:30am 7.1 4.9 6.4 95 0.3 SSE 7 9 4 5 1024.5 - 0.0
03/05:00am 7.1 4.2 6.5 96 0.3 SSE 11 13 6 7 1024.2 - 0.0
03/04:30am 5.8 3.4 5.1 95 0.3 S 7 13 4 7 1024.3 - 0.0
03/04:00am 5.9 3.5 5.2 95 0.3 SSW 7 9 4 5 1024.1 - 0.0
03/03:30am 5.5 4.3 4.8 95 0.3 CALM 0 0 0 0 1024.1 - 0.0
03/03:00am 5.7 3.8 5.0 95 0.3 WSW 4 7 2 4 1024.4 1024.4 0.0
03/02:30am 5.0 2.6 4.3 95 0.3 WSW 6 7 3 4 1025.1 - 0.0
03/02:00am 4.9 3.6 4.0 94 0.4 CALM 0 0 0 0 1025.5 - 0.0
03/01:30am 6.5 5.6 5.9 96 0.3 CALM 0 0 0 0 1025.9 - 0.0
03/01:00am 6.4 4.0 5.4 93 0.4 SE 7 7 4 4 1025.9 - 0.0
03/12:30am 7.1 4.5 6.0 93 0.5 S 9 11 5 6 1026.1 - 0.0
03/12:00am 7.6 5.1 6.4 92 0.5 SSW 9 13 5 7 1026.5 1026.5 0.0
 
Date/Time
CST
Temp
°C
App
Temp
°C
Dew
Point
Rel
Hum
%
Delta-T
°C
Wind Press
QNH
hPa
Press
MSL
hPa
Rain
since 9 am
mm
Dir
 
Spd
km/h
Gust
km/h
Spd
kts
Gust
kts
02/11:30pm 8.8 6.5 7.4 91 0.7 S 9 15 5 8 1026.5 - 0.0
02/11:00pm 8.7 5.9 7.0 89 0.8 S 11 13 6 7 1026.5 - 0.0
02/10:30pm 9.5 7.6 7.6 88 0.9 SSW 7 9 4 5 1026.9 - 0.0
02/10:00pm 7.9 5.9 6.4 90 0.7 NW 6 9 3 5 1027.0 - 0.0
02/09:30pm 9.5 7.2 7.6 88 0.9 SSE 9 13 5 7 1027.0 - 0.0
02/09:00pm 8.7 6.2 6.7 87 0.9 S 9 11 5 6 1027.0 1027.0 0.0
02/08:30pm 8.6 5.6 6.2 85 1.1 SSE 11 13 6 7 1027.1 - 0.0
02/08:00pm 9.7 7.3 6.8 82 1.4 SE 9 13 5 7 1026.8 - 0.0
02/07:30pm 9.1 5.3 6.0 81 1.4 SSE 15 17 8 9 1026.7 - 0.0
02/07:00pm 10.5 7.9 6.1 74 2.0 SE 9 11 5 6 1026.5 - 0.0
02/06:30pm 10.9 7.5 5.7 70 2.4 SSE 13 15 7 8 1026.1 - 0.0
02/06:00pm 12.9 9.1 5.8 62 3.3 SSE 15 19 8 10 1025.8 1025.8 0.0
02/05:30pm 14.1 9.2 5.2 55 4.2 SSE 20 26 11 14 1025.6 - 0.0
02/05:00pm 15.0 10.1 5.2 52 4.6 SE 20 30 11 16 1025.3 - 0.0
02/04:30pm 15.4 10.6 4.5 48 5.1 SSE 19 24 10 13 1025.3 - 0.0
02/04:00pm 15.2 10.4 4.9 50 4.8 SSE 19 26 10 14 1025.2 - 0.0
02/03:30pm 15.1 9.8 4.8 50 4.8 SE 22 28 12 15 1025.1 - 0.0
02/03:00pm 15.6 8.9 1.7 39 6.1 S 26 37 14 20 1024.9 1024.9 0.0
02/02:30pm 16.1 10.4 4.8 47 5.3 SSE 24 33 13 18 1025.0 - 0.0
02/02:00pm 15.2 9.1 4.6 49 4.9 SE 26 37 14 20 1025.3 - 0.0
02/01:30pm 15.1 8.7 5.0 51 4.8 SE 28 39 15 21 1025.2 - 0.0
02/01:00pm 15.5 9.1 5.1 50 4.9 SE 28 37 15 20 1025.4 - 0.0
02/12:46pm 15.3 8.4 4.4 48 5.1 SE 30 48 16 26 1025.5 - 0.0
02/12:30pm 15.1 8.2 4.8 50 4.8 SE 30 43 16 23 1025.5 - 0.0
02/12:00pm 15.4 8.0 3.9 46 5.3 SSE 32 41 17 22 1025.6 1025.6 0.0
02/11:30am 14.8 8.6 6.1 56 4.2 SE 28 44 15 24 1026.0 - 0.0
02/11:00am 13.8 8.6 7.3 65 3.2 SSE 24 32 13 17 1026.4 - 0.0
02/10:30am 13.9 8.0 6.0 59 3.8 SSE 26 41 14 22 1026.5 - 0.0
02/10:00am 13.2 8.0 7.4 68 2.8 S 24 32 13 17 1026.4 - 0.0
02/09:30am 12.0 6.1 7.5 74 2.2 SSW 28 39 15 21 1026.8 - 0.0
02/09:00am 12.2 6.6 7.3 72 2.4 S 26 32 14 17 1026.3 1026.3 5.0
02/08:30am 10.6 4.3 7.3 80 1.6 S 30 39 16 21 1026.2 - 5.0
02/08:00am 9.2 3.4 6.3 82 1.3 SSW 26 35 14 19 1026.3 - 5.0
02/07:30am 7.9 3.3 5.4 84 1.1 SSW 19 24 10 13 1025.8 - 5.0
02/07:00am 6.8 2.1 5.0 88 0.8 SW 19 24 10 13 1025.4 - 5.0
02/06:30am 7.0 2.1 5.2 88 0.8 SSW 20 26 11 14 1025.1 - 5.0
02/06:00am 6.4 1.4 4.4 87 0.9 SSW 20 24 11 13 1025.2 1025.2 5.0
02/05:30am 6.3 1.2 4.3 87 0.9 SW 20 28 11 15 1024.8 - 5.0
02/05:00am 6.6 1.8 4.4 86 0.9 SW 19 24 10 13 1024.7 - 5.0
02/04:30am 6.1 1.2 4.3 88 0.8 SW 19 22 10 12 1023.9 - 5.0
02/04:00am 6.4 1.4 4.4 87 0.9 SW 20 26 11 14 1023.8 - 5.0
02/03:30am 6.5 1.6 4.3 86 0.9 SW 19 22 10 12 1023.5 - 5.0
02/03:00am 6.8 2.4 4.5 85 1.0 SW 17 22 9 12 1023.5 1023.5 5.0
02/02:30am 6.8 1.5 4.8 87 0.9 SW 22 28 12 15 1023.6 - 5.0
02/02:00am 7.0 2.3 5.0 87 0.9 SW 19 28 10 15 1023.4 - 5.0
02/01:30am 6.9 2.0 5.1 88 0.8 WSW 20 24 11 13 1023.3 - 5.0
02/01:00am 7.0 2.3 5.2 88 0.8 WSW 19 22 10 12 1023.3 - 5.0
02/12:30am 7.5 3.2 5.3 86 1.0 SW 17 20 9 11 1023.1 - 5.0
02/12:00am 7.8 3.2 5.4 85 1.1 SW 19 28 10 15 1023.1 1023.1 5.0
 
Date/Time
CST
Temp
°C
App
Temp
°C
Dew
Point
Rel
Hum
%
Delta-T
°C
Wind Press
QNH
hPa
Press
MSL
hPa
Rain
since 9 am
mm
Dir
 
Spd
km/h
Gust
km/h
Spd
kts
Gust
kts
01/11:30pm 7.9 3.4 5.9 87 0.9 SW 19 24 10 13 1023.2 - 5.0
01/11:00pm 8.5 3.4 6.0 84 1.1 SW 22 32 12 17 1022.7 - 5.0
01/10:30pm 7.8 4.9 6.3 90 0.7 WSW 11 13 6 7 1022.7 - 5.0
01/10:00pm 9.0 5.1 7.1 88 0.9 SW 17 24 9 13 1022.4 - 5.0
01/09:30pm 8.9 5.7 7.0 88 0.9 SW 13 17 7 9 1022.0 - 5.0
01/09:00pm 10.2 6.5 8.1 87 1.0 WSW 17 22 9 12 1021.6 1021.6 5.0
01/08:30pm 8.6 6.0 7.7 94 0.4 SW 11 11 6 6 1021.3 - 5.0
01/08:00pm 9.0 6.4 7.9 93 0.5 S 11 13 6 7 1020.8 - 4.6
01/07:30pm 10.3 6.8 8.6 89 0.8 S 17 20 9 11 1020.3 - 4.6
01/07:00pm 11.0 8.5 9.6 91 0.7 SSW 13 20 7 11 1019.7 - 4.6
01/06:30pm 11.1 8.4 9.0 87 1.0 SE 13 17 7 9 1018.8 - 2.6
01/06:00pm 11.2 7.4 9.1 87 1.0 SE 19 28 10 15 1018.3 1018.3 2.6
01/05:30pm 11.7 5.3 9.4 86 1.2 SSE 33 41 18 22 1018.0 - 1.6
01/05:00pm 14.0 8.7 8.4 69 2.8 SSE 26 35 14 19 1016.7 - 1.2
01/04:30pm 13.7 9.6 8.5 71 2.6 SE 20 28 11 15 1016.5 - 1.2
01/04:00pm 13.4 8.2 8.9 74 2.3 SSE 26 35 14 19 1016.1 - 1.2
01/03:34pm 14.0 8.2 8.0 67 3.0 S 28 46 15 25 1016.1 - 1.2
01/03:30pm 14.6 10.5 10.0 74 2.4 S 22 30 12 16 1016.1 - 1.2
01/03:00pm 15.3 11.8 10.3 72 2.6 ESE 19 22 10 12 1015.3 1015.3 1.2
01/02:30pm 14.3 10.1 9.9 75 2.3 ESE 22 32 12 17 1015.3 - 1.2
01/02:00pm 15.1 11.5 10.5 74 2.4 SE 20 33 11 18 1015.5 - 1.2
01/01:30pm 14.7 11.1 10.5 76 2.2 S 20 28 11 15 1015.8 - 1.2
01/01:00pm 14.0 9.9 10.2 78 2.0 SSW 22 30 12 16 1015.7 - 1.2
01/12:30pm 12.3 6.3 10.0 86 1.2 S 32 39 17 21 1015.6 - 1.0
01/12:00pm 15.4 11.8 11.8 79 1.9 WSW 22 28 12 15 1015.7 1015.7 0.8
01/11:30am 14.7 11.6 11.7 82 1.6 WSW 19 24 10 13 1015.9 - 0.8
01/11:00am 14.2 13.2 12.4 89 1.0 W 9 17 5 9 1016.1 - 0.8
01/10:30am 13.6 12.7 12.5 93 0.6 WSW 9 11 5 6 1016.1 - 0.8
01/10:15am 13.5 12.8 12.1 91 0.8 SSW 7 9 4 5 1015.9 - 0.2
01/10:00am 13.4 14.0 11.8 90 0.9 CALM 0 6 0 3 1015.7 - 0.2
01/09:40am 13.5 12.5 12.2 92 0.7 SW 9 11 5 6 1015.9 - 0.0
01/09:30am 13.4 11.7 12.3 93 0.6 SSW 13 15 7 8 1015.8 - 0.0
01/09:19am 13.4 14.1 12.3 93 0.6 CALM 0 0 0 0 1015.6 - 0.0
01/09:00am 13.1 12.6 12.0 93 0.6 ESE 6 7 3 4 1015.2 1015.2 4.8
01/08:30am 13.0 12.3 12.1 94 0.5 E 7 11 4 6 1015.0 - 4.6
01/08:00am 13.2 12.8 12.3 94 0.5 ESE 6 9 3 5 1015.2 - 4.4
01/07:52am 13.2 12.7 12.1 93 0.6 S 6 9 3 5 1015.1 - 4.4
01/07:37am 13.2 12.5 12.1 93 0.6 SSE 7 11 4 6 1015.0 - 4.4
01/07:30am 13.1 12.6 12.0 93 0.6 ESE 6 9 3 5 1015.1 - 4.2
01/07:00am 13.1 12.5 11.8 92 0.7 SSE 6 13 3 7 1014.9 - 4.0
01/06:30am 12.9 9.7 12.0 94 0.5 S 20 30 11 16 1013.6 - 4.0
01/06:05am 13.5 12.6 12.6 94 0.5 NW 9 13 5 7 1015.2 - 2.6
01/06:00am 13.5 12.6 12.6 94 0.5 W 9 17 5 9 1015.0 1015.0 2.6
01/05:55am 13.6 12.0 12.7 94 0.5 SW 13 22 7 12 1014.6 - 2.6
01/05:30am 13.6 11.2 12.7 94 0.5 S 17 28 9 15 1012.6 - 2.2
01/05:00am 13.2 11.8 12.3 94 0.5 N 11 15 6 8 1013.5 - 2.0
01/04:30am 13.7 10.8 12.4 92 0.7 ESE 19 28 10 15 1011.6 - 1.4
01/04:00am 13.9 10.1 12.3 90 0.9 ESE 24 35 13 19 1011.0 - 1.2
01/03:30am 14.1 11.0 12.3 89 1.0 S 20 30 11 16 1011.8 - 0.4
01/03:00am 13.9 10.9 12.1 89 1.0 SE 19 22 10 12 1011.9 1011.9 0.4
01/02:30am 13.8 10.8 12.4 91 0.8 SSE 20 26 11 14 1012.3 - 0.2
01/02:00am 14.0 11.0 12.4 90 0.9 SSE 20 26 11 14 1012.9 - 0.0
01/01:30am 14.3 10.8 12.2 87 1.1 SE 22 35 12 19 1012.9 - 0.0
01/01:00am 14.6 10.6 11.9 84 1.5 SE 24 35 13 19 1012.8 - 0.0
01/12:30am 15.2 10.7 11.4 78 2.0 SE 26 33 14 18 1013.5 - 0.0
01/12:00am 16.3 12.9 7.5 56 4.4 S 15 20 8 11 1013.4 1013.4 0.0
 
Date/Time
CST
Temp
°C
App
Temp
°C
Dew
Point
Rel
Hum
%
Delta-T
°C
Wind Press
QNH
hPa
Press
MSL
hPa
Rain
since 9 am
mm
Dir
 
Spd
km/h
Gust
km/h
Spd
kts
Gust
kts
31/11:30pm 16.0 12.0 -2.0 29 7.3 NNW 9 11 5 6 1012.2 - 0.0
31/11:00pm 17.4 12.6 -2.3 26 8.1 W 13 17 7 9 1011.8 - 0.0
31/10:30pm 19.0 13.1 -2.0 24 8.8 NW 19 22 10 12 1011.0 - 0.0
31/10:00pm 18.1 12.7 -1.7 26 8.3 NW 17 20 9 11 1011.2 - 0.0
31/09:30pm 18.4 13.3 -2.0 25 8.5 WNW 15 19 8 10 1011.3 - 0.0
31/09:00pm 20.6 14.6 -1.8 22 9.6 N 20 30 11 16 1010.9 1010.9 0.0
31/08:30pm 21.4 14.6 -1.8 21 10.0 N 24 37 13 20 1010.7 - 0.0
31/08:00pm 20.8 14.4 -1.7 22 9.7 N 22 28 12 15 1010.7 - 0.0
31/07:30pm 20.4 14.5 -2.0 22 9.5 N 19 26 10 14 1010.7 - 0.0
31/07:00pm 21.0 15.0 -1.5 22 9.7 N 20 24 11 13 1010.7 - 0.0
31/06:30pm 22.0 15.6 -2.0 20 10.4 N 22 26 12 14 1010.4 - 0.0
31/06:00pm 23.7 16.9 -2.0 18 11.3 N 24 30 13 16 1010.7 1010.7 0.0
31/05:30pm 24.5 17.3 -2.1 17 11.7 N 26 33 14 18 1010.7 - 0.0
31/05:00pm 25.5 18.4 -1.3 17 12.1 N 26 33 14 18 1010.8 - 0.0
31/04:30pm 25.9 17.6 -1.8 16 12.4 N 32 41 17 22 1010.6 - 0.0
31/04:00pm 26.6 18.7 -1.3 16 12.7 N 30 39 16 21 1010.7 - 0.0
31/03:30pm 27.8 19.4 -2.1 14 13.5 N 32 41 17 22 1011.0 - 0.0
31/03:00pm 26.4 18.8 -2.3 15 12.8 NNW 28 35 15 19 1011.5 1011.5 0.0
31/02:30pm 26.8 18.2 -2.9 14 13.1 NNW 33 43 18 23 1011.8 - 0.0
31/02:00pm 26.3 17.9 -2.4 15 12.8 NNW 32 48 17 26 1012.2 - 0.0
31/01:30pm 27.5 19.2 -1.4 15 13.2 NNW 32 43 17 23 1012.6 - 0.0
31/01:00pm 27.3 18.6 -0.7 16 12.9 N 35 54 19 29 1013.2 - 0.0
31/12:56pm 26.5 17.7 -1.3 16 12.6 N 35 54 19 29 1013.2 - 0.0
31/12:30pm 27.1 18.0 -0.9 16 12.9 N 37 50 20 27 1013.9 - 0.0
31/12:00pm 26.2 17.7 -1.6 16 12.5 N 33 44 18 24 1014.8 1014.8 0.0

Other Formats:

Comma delimited format used in spreadsheet applications
http://www.bom.gov.au/fwo/IDS60801/IDS60801.95666.axf

JavaScript Object Notation format (JSON) in row-major order
http://www.bom.gov.au/fwo/IDS60801/IDS60801.95666.json